Time;durP1;ratioP1;P1;durP2;ratioP2;P2;SDS_P1;SDS_P2;PMS_P1;PMS_P2;Temp;Humidity;BMP_temperature;BMP_pressure;BME280_temperature;BME280_humidity;BME280_pressure;Samples;Min_cycle;Max_cycle;Signal;HPM_P1;HPM_P2
2022/10/29 00:01:44;;;;;;;78.97;53.22;;;19.60;82.50;;;;;;4944914;28;90176;-51
2022/10/29 00:04:10;;;;;;;76.10;53.35;;;19.60;82.50;;;;;;4947456;28;89632;-54
2022/10/29 00:06:36;;;;;;;75.85;53.45;;;19.60;82.50;;;;;;4945107;28;88971;-52
2022/10/29 00:09:02;;;;;;;75.88;53.47;;;19.60;82.50;;;;;;4949345;28;90201;-51
2022/10/29 00:11:28;;;;;;;77.30;53.15;;;19.60;82.50;;;;;;4942257;28;90592;-52
2022/10/29 00:13:56;;;;;;;75.70;53.22;;;19.60;82.50;;;;;;4942075;28;94733;-54
2022/10/29 00:16:27;;;;;;;75.60;53.17;;;19.60;82.50;;;;;;4939719;28;92594;-52
2022/10/29 00:18:54;;;;;;;75.20;52.67;;;19.60;82.50;;;;;;4941657;28;91844;-51
2022/10/29 00:21:22;;;;;;;76.13;52.88;;;19.60;82.50;;;;;;4953736;28;90087;-53
2022/10/29 00:23:48;;;;;;;75.57;53.15;;;19.60;82.40;;;;;;4940747;28;90183;-52
2022/10/29 00:26:15;;;;;;;75.78;53.40;;;19.60;82.40;;;;;;4938512;28;90623;-52
2022/10/29 00:28:41;;;;;;;76.93;53.15;;;19.60;82.40;;;;;;4943450;28;90178;-51
2022/10/29 00:31:11;;;;;;;77.38;53.63;;;19.60;82.40;;;;;;4942063;28;90751;-54
2022/10/29 00:33:37;;;;;;;77.35;53.75;;;19.60;82.40;;;;;;4949131;28;92089;-53
2022/10/29 00:36:05;;;;;;;76.70;52.83;;;19.60;82.30;;;;;;4953332;28;90975;-54
2022/10/29 00:38:32;;;;;;;79.80;53.55;;;19.60;82.30;;;;;;4955436;28;92148;-53
2022/10/29 00:40:58;;;;;;;76.45;53.03;;;19.60;82.30;;;;;;4949155;28;90523;-49
2022/10/29 00:43:25;;;;;;;76.32;53.08;;;19.50;82.20;;;;;;4949799;28;90625;-51
2022/10/29 00:45:57;;;;;;;75.78;53.22;;;19.50;82.20;;;;;;4948379;28;90515;-52
2022/10/29 00:48:26;;;;;;;75.80;52.83;;;19.60;82.30;;;;;;4950698;28;91242;-50
2022/10/29 00:50:53;;;;;;;77.93;52.92;;;19.60;82.20;;;;;;4949947;28;90967;-52
2022/10/29 00:53:22;;;;;;;76.45;53.28;;;19.50;82.10;;;;;;4952987;28;90042;-53
2022/10/29 00:55:48;;;;;;;77.35;53.35;;;19.50;82.20;;;;;;4947903;28;90213;-52
2022/10/29 00:58:14;;;;;;;77.43;53.22;;;19.50;82.20;;;;;;4946703;28;91861;-51
2022/10/29 01:00:40;;;;;;;75.55;53.25;;;19.50;82.10;;;;;;4946849;28;91162;-53
2022/10/29 01:03:06;;;;;;;74.53;52.75;;;19.50;82.10;;;;;;4945310;28;91570;-51
2022/10/29 01:05:33;;;;;;;75.65;52.75;;;19.50;82.10;;;;;;4949449;28;89962;-48
2022/10/29 01:08:00;;;;;;;77.13;53.55;;;19.50;82.10;;;;;;4952389;28;90184;-48
2022/10/29 01:11:09;;;;;;;75.35;52.70;;;19.50;82.10;;;;;;4947725;28;94975;-53
2022/10/29 01:14:00;;;;;;;75.30;53.08;;;19.50;82.10;;;;;;4916278;28;91777;-51
2022/10/29 01:16:45;;;;;;;75.50;53.03;;;19.50;82.10;;;;;;4952370;28;89826;-52
2022/10/29 01:19:32;;;;;;;77.70;53.25;;;19.50;82.10;;;;;;4949375;28;90052;-51
2022/10/29 01:22:08;;;;;;;74.88;53.08;;;19.50;82.10;;;;;;4947685;28;90061;-52
2022/10/29 01:24:53;;;;;;;75.38;52.92;;;19.50;82.10;;;;;;4951063;28;90264;-53
2022/10/29 01:27:46;;;;;;;74.57;52.63;;;19.50;82.10;;;;;;4951211;28;90969;-52
2022/10/29 01:30:19;;;;;;;74.85;52.72;;;19.50;82.00;;;;;;4953128;28;91070;-52
2022/10/29 01:33:02;;;;;;;74.57;52.78;;;19.50;82.00;;;;;;4954201;28;90453;-49
2022/10/29 01:35:33;;;;;;;74.38;52.85;;;19.40;82.00;;;;;;4951559;28;89739;-51
2022/10/29 01:37:59;;;;;;;75.28;52.42;;;19.40;81.90;;;;;;4948182;28;93564;-53
2022/10/29 01:40:26;;;;;;;75.07;52.40;;;19.40;82.00;;;;;;4944740;28;90677;-53
2022/10/29 01:43:33;;;;;;;76.15;53.05;;;19.40;82.00;;;;;;4942971;28;90539;-53
2022/10/29 01:46:05;;;;;;;75.53;52.50;;;19.40;82.00;;;;;;4945993;28;90332;-58
2022/10/29 01:48:37;;;;;;;74.88;52.75;;;19.40;82.00;;;;;;4943545;28;89307;-54
2022/10/29 01:51:17;;;;;;;75.45;53.45;;;19.40;82.00;;;;;;4953016;28;90188;-54
2022/10/29 01:53:44;;;;;;;73.93;52.53;;;19.40;81.90;;;;;;4947352;28;90102;-52
2022/10/29 01:56:09;;;;;;;75.50;52.85;;;19.40;81.90;;;;;;4946030;28;91320;-53
2022/10/29 01:58:36;;;;;;;75.30;53.03;;;19.40;81.90;;;;;;4946475;28;89919;-51
2022/10/29 02:01:23;;;;;;;76.00;52.78;;;19.40;81.90;;;;;;4954489;28;91158;-54
2022/10/29 02:04:06;;;;;;;75.88;53.97;;;19.40;81.90;;;;;;4945637;28;90122;-54
2022/10/29 02:06:58;;;;;;;74.63;52.58;;;19.40;82.60;;;;;;4952081;28;90046;-53
2022/10/29 02:09:30;;;;;;;;;;;19.40;81.80;;;;;;4952287;28;94253;-50
2022/10/29 02:12:13;;;;;;;75.32;52.78;;;19.40;81.90;;;;;;4950671;28;90226;-52
2022/10/29 02:15:03;;;;;;;76.68;52.80;;;19.40;81.80;;;;;;4954790;28;89945;-50
2022/10/29 02:17:33;;;;;;;74.78;52.33;;;19.40;81.80;;;;;;4946916;28;92380;-53
2022/10/29 02:20:06;;;;;;;75.43;52.60;;;19.40;81.80;;;;;;4948299;28;90852;-53
2022/10/29 02:22:32;;;;;;;74.43;52.95;;;19.40;81.80;;;;;;4950439;28;90873;-52
2022/10/29 02:24:58;;;;;;;75.93;53.00;;;19.40;81.70;;;;;;4949018;28;90888;-51
2022/10/29 02:27:24;;;;;;;75.15;52.67;;;19.40;81.80;;;;;;4951921;28;93155;-51
2022/10/29 02:29:49;;;;;;;75.60;52.83;;;19.40;81.80;;;;;;4946071;28;90150;-52
2022/10/29 02:32:15;;;;;;;74.95;52.80;;;19.40;81.80;;;;;;4943871;28;91047;-51
2022/10/29 02:34:40;;;;;;;74.28;52.17;;;19.40;81.80;;;;;;4945878;28;91964;-53
2022/10/29 02:37:06;;;;;;;75.38;52.95;;;19.40;81.80;;;;;;4949599;28;90018;-52
2022/10/29 02:39:32;;;;;;;75.72;53.03;;;19.30;81.70;;;;;;4948377;28;89666;-53
2022/10/29 02:41:58;;;;;;;73.93;52.38;;;19.40;81.70;;;;;;4945423;28;94722;-51
2022/10/29 02:44:23;;;;;;;75.13;52.67;;;19.40;81.60;;;;;;4947400;28;90575;-53
2022/10/29 02:46:49;;;;;;;74.97;52.95;;;19.40;81.70;;;;;;4942243;28;91136;-53
2022/10/29 02:49:15;;;;;;;73.97;52.45;;;19.40;81.60;;;;;;4949116;28;89779;-53
2022/10/29 02:51:40;;;;;;;74.78;52.35;;;19.40;81.60;;;;;;4951300;28;90204;-51
2022/10/29 02:54:06;;;;;;;76.18;52.90;;;19.30;81.50;;;;;;4944774;28;90314;-51
2022/10/29 02:56:32;;;;;;;74.55;52.42;;;19.30;81.50;;;;;;4949949;28;90175;-51
2022/10/29 02:58:57;;;;;;;74.32;52.67;;;19.40;81.50;;;;;;4950339;28;89975;-53
2022/10/29 03:01:23;;;;;;;74.40;52.47;;;19.40;81.50;;;;;;4943655;28;91878;-54
2022/10/29 03:03:49;;;;;;;74.82;52.60;;;19.30;81.50;;;;;;4944266;28;90231;-53
2022/10/29 03:06:17;;;;;;;75.50;53.20;;;19.30;81.50;;;;;;4946931;28;90120;-53
2022/10/29 03:08:43;;;;;;;75.28;52.95;;;19.30;81.50;;;;;;4947733;28;91428;-53
2022/10/29 03:11:09;;;;;;;75.72;52.70;;;19.40;81.50;;;;;;4951357;28;92487;-50
2022/10/29 03:13:35;;;;;;;73.78;52.40;;;19.40;81.50;;;;;;4944240;28;93804;-52
2022/10/29 03:16:01;;;;;;;75.07;52.65;;;19.30;81.40;;;;;;4941809;28;90580;-53
2022/10/29 03:18:26;;;;;;;74.68;52.75;;;19.40;81.40;;;;;;4952706;28;89775;-50
2022/10/29 03:20:52;;;;;;;75.45;52.65;;;19.30;81.40;;;;;;4946188;28;92600;-53
2022/10/29 03:23:18;;;;;;;73.55;52.40;;;19.30;81.40;;;;;;4947892;28;89780;-52
2022/10/29 03:25:44;;;;;;;76.13;52.60;;;19.30;81.30;;;;;;4949354;28;90208;-49
2022/10/29 03:28:09;;;;;;;74.88;52.53;;;19.40;81.40;;;;;;4955725;28;89427;-54
2022/10/29 03:30:35;;;;;;;73.80;52.58;;;19.30;81.30;;;;;;4943651;28;91842;-53
2022/10/29 03:33:01;;;;;;;75.43;52.60;;;19.30;81.20;;;;;;4945387;28;91438;-49
2022/10/29 03:35:26;;;;;;;76.13;53.00;;;19.30;81.20;;;;;;4951342;28;90811;-51
2022/10/29 03:37:52;;;;;;;74.50;52.47;;;19.30;81.20;;;;;;4945677;28;90498;-52
2022/10/29 03:40:19;;;;;;;74.82;52.63;;;19.30;81.20;;;;;;4939971;28;90623;-49
2022/10/29 03:42:45;;;;;;;74.10;52.58;;;19.30;81.20;;;;;;4947710;28;91141;-50
2022/10/29 03:45:10;;;;;;;74.95;52.60;;;19.30;81.20;;;;;;4942364;28;90291;-52
2022/10/29 03:47:36;;;;;;;74.45;52.75;;;19.30;81.20;;;;;;4947883;28;91045;-48
2022/10/29 03:50:03;;;;;;;73.90;52.28;;;19.30;81.20;;;;;;4941688;28;91864;-51
2022/10/29 03:52:28;;;;;;;75.97;52.72;;;19.30;81.30;;;;;;4950080;28;89204;-48
2022/10/29 03:54:54;;;;;;;74.45;52.58;;;19.30;81.20;;;;;;4943675;28;93846;-52
2022/10/29 03:57:20;;;;;;;74.25;52.45;;;19.30;81.20;;;;;;4943349;28;92808;-51
2022/10/29 03:59:48;;;;;;;74.72;52.80;;;19.30;81.20;;;;;;4942211;28;91693;-52
2022/10/29 04:02:14;;;;;;;74.35;52.53;;;19.30;81.20;;;;;;4951530;28;91415;-48
2022/10/29 04:04:39;;;;;;;74.40;52.55;;;19.30;81.20;;;;;;4947707;28;91254;-51
2022/10/29 04:07:05;;;;;;;75.28;52.63;;;19.30;81.30;;;;;;4955584;28;91211;-50
2022/10/29 04:09:31;;;;;;;73.13;52.25;;;19.30;81.20;;;;;;4949222;28;92178;-52
2022/10/29 04:11:56;;;;;;;77.63;52.85;;;19.30;81.20;;;;;;4948148;28;91139;-51
2022/10/29 04:14:22;;;;;;;73.47;52.30;;;19.30;81.20;;;;;;4951803;28;90239;-55
2022/10/29 04:16:47;;;;;;;74.28;52.28;;;19.30;81.20;;;;;;4947573;28;90336;-52
2022/10/29 04:19:13;;;;;;;75.22;52.92;;;19.30;81.20;;;;;;4944625;28;91226;-55
2022/10/29 04:21:39;;;;;;;75.05;52.28;;;19.30;81.20;;;;;;4954987;28;90360;-53
2022/10/29 04:24:05;;;;;;;74.53;52.60;;;19.30;81.10;;;;;;4948382;28;90602;-52
2022/10/29 04:26:30;;;;;;;74.82;52.60;;;19.30;81.10;;;;;;4947972;28;90179;-50
2022/10/29 04:28:56;;;;;;;75.20;52.80;;;19.30;81.10;;;;;;4948719;28;90147;-52
2022/10/29 04:31:22;;;;;;;76.00;52.50;;;19.30;81.10;;;;;;4946443;28;92151;-54
2022/10/29 04:33:47;;;;;;;75.47;53.22;;;19.30;81.20;;;;;;4945779;28;91220;-51
2022/10/29 04:36:13;;;;;;;74.72;52.40;;;19.20;81.10;;;;;;4947594;28;90277;-53
2022/10/29 04:38:39;;;;;;;74.95;52.38;;;19.20;81.10;;;;;;4944875;28;89967;-54
2022/10/29 04:41:05;;;;;;;75.78;52.92;;;19.30;81.20;;;;;;4947984;28;91468;-50
2022/10/29 04:43:31;;;;;;;73.88;52.30;;;19.20;81.10;;;;;;4949596;28;89979;-52
2022/10/29 04:45:58;;;;;;;74.40;52.53;;;19.20;81.10;;;;;;4942179;28;91300;-53
2022/10/29 04:48:26;;;;;;;74.90;52.65;;;19.20;81.20;;;;;;4953599;28;91204;-52
2022/10/29 04:50:51;;;;;;;74.53;52.25;;;19.20;81.10;;;;;;4943104;28;89842;-50
2022/10/29 04:53:17;;;;;;;74.65;52.78;;;19.20;81.10;;;;;;4952553;28;90506;-53
2022/10/29 04:55:44;;;;;;;73.40;52.40;;;19.20;81.10;;;;;;4949214;28;91391;-52
2022/10/29 04:58:19;;;;;;;73.57;52.38;;;19.20;81.10;;;;;;4952352;28;91443;-52
2022/10/29 05:00:45;;;;;;;78.25;52.45;;;19.20;81.10;;;;;;4945872;28;90671;-54
2022/10/29 05:03:11;;;;;;;75.55;52.88;;;19.20;81.10;;;;;;4954287;28;90806;-52
2022/10/29 05:05:38;;;;;;;74.85;52.75;;;19.20;81.10;;;;;;4944266;28;89636;-54
2022/10/29 05:08:05;;;;;;;74.40;52.13;;;19.20;81.10;;;;;;4948606;28;89931;-53
2022/10/29 05:10:36;;;;;;;75.28;53.08;;;19.20;81.10;;;;;;4950092;28;90197;-52
2022/10/29 05:13:10;;;;;;;73.80;52.30;;;19.20;81.00;;;;;;4943075;28;91384;-53
2022/10/29 05:15:36;;;;;;;74.63;52.55;;;19.20;81.10;;;;;;4946741;28;89787;-52
2022/10/29 05:18:02;;;;;;;73.68;52.33;;;19.20;81.10;;;;;;4942577;28;92977;-53
2022/10/29 05:20:29;;;;;;;73.30;52.03;;;19.20;81.10;;;;;;4952593;28;91661;-51
2022/10/29 05:23:02;;;;;;;74.47;52.63;;;19.20;81.10;;;;;;4949559;28;90230;-53
2022/10/29 05:25:30;;;;;;;74.25;52.42;;;19.20;81.20;;;;;;4947551;28;94819;-52
2022/10/29 05:28:19;;;;;;;73.97;52.97;;;19.20;81.10;;;;;;4946025;28;91808;-50
2022/10/29 05:30:46;;;;;;;73.55;52.55;;;19.20;81.10;;;;;;4952372;28;89428;-53
2022/10/29 05:33:15;;;;;;;75.13;52.72;;;19.10;81.10;;;;;;4947049;28;90149;-50
2022/10/29 05:35:41;;;;;;;75.18;52.67;;;19.20;81.10;;;;;;4947307;28;92952;-50
2022/10/29 05:38:09;;;;;;;74.65;52.75;;;19.20;81.10;;;;;;4942016;28;91796;-47
2022/10/29 05:40:34;;;;;;;74.93;52.85;;;19.20;81.10;;;;;;4949050;28;93355;-53
2022/10/29 05:43:00;;;;;;;73.50;52.72;;;19.20;81.10;;;;;;4949282;28;90317;-49
2022/10/29 05:45:26;;;;;;;75.53;52.50;;;19.20;81.10;;;;;;4945396;28;90404;-49
2022/10/29 05:47:56;;;;;;;75.20;52.63;;;19.10;81.00;;;;;;4945670;28;93876;-49
2022/10/29 05:50:22;;;;;;;73.97;53.07;;;19.10;81.00;;;;;;4944335;28;92427;-51
2022/10/29 05:52:57;;;;;;;73.10;52.58;;;19.20;81.00;;;;;;4950086;28;90030;-48
2022/10/29 05:55:24;;;;;;;73.53;52.63;;;19.10;81.00;;;;;;4948791;28;95383;-49
2022/10/29 05:57:53;;;;;;;73.85;52.50;;;19.10;81.00;;;;;;4947884;28;90312;-50
2022/10/29 06:00:19;;;;;;;73.97;52.30;;;19.10;81.00;;;;;;4947518;28;94913;-52
2022/10/29 06:02:45;;;;;;;73.63;52.50;;;19.10;81.00;;;;;;4947981;28;91958;-53
2022/10/29 06:05:10;;;;;;;74.88;53.20;;;19.10;80.90;;;;;;4945846;28;90124;-51
2022/10/29 06:07:36;;;;;;;74.25;52.53;;;19.10;80.90;;;;;;4942262;28;92992;-54
2022/10/29 06:10:02;;;;;;;73.40;52.53;;;19.10;80.90;;;;;;4945525;28;90636;-50
2022/10/29 06:12:31;;;;;;;74.15;52.63;;;19.10;80.90;;;;;;4951343;28;89889;-53
2022/10/29 06:14:57;;;;;;;75.40;52.83;;;19.10;80.90;;;;;;4942361;28;90179;-53
2022/10/29 06:17:23;;;;;;;75.22;52.70;;;19.10;80.90;;;;;;4947925;28;91115;-54
2022/10/29 06:19:49;;;;;;;75.38;53.15;;;19.10;81.00;;;;;;4942469;28;90694;-54
2022/10/29 06:22:14;;;;;;;73.38;52.33;;;19.10;81.00;;;;;;4945550;28;91057;-52
2022/10/29 06:24:40;;;;;;;74.57;52.47;;;19.10;80.80;;;;;;4945908;28;90202;-53
2022/10/29 06:27:05;;;;;;;74.53;52.55;;;19.10;80.90;;;;;;4943585;28;93382;-52
2022/10/29 06:29:31;;;;;;;73.55;52.60;;;19.10;80.80;;;;;;4944627;28;91945;-51
2022/10/29 06:31:57;;;;;;;75.43;52.55;;;19.10;80.80;;;;;;4940931;28;90332;-52
2022/10/29 06:34:22;;;;;;;76.38;52.65;;;19.10;80.80;;;;;;4950116;28;91924;-52
2022/10/29 06:36:48;;;;;;;76.60;52.50;;;19.10;80.80;;;;;;4946138;28;95243;-53
2022/10/29 06:39:14;;;;;;;76.22;52.85;;;19.10;80.90;;;;;;4941520;28;92419;-52
2022/10/29 06:41:40;;;;;;;73.40;52.50;;;19.10;80.90;;;;;;4929539;28;90957;-53
2022/10/29 06:44:05;;;;;;;75.78;52.67;;;19.10;80.90;;;;;;4939863;28;89321;-50
2022/10/29 06:46:33;;;;;;;74.25;52.65;;;19.10;80.80;;;;;;4945524;28;89870;-49
2022/10/29 06:48:59;;;;;;;74.80;52.40;;;19.10;80.70;;;;;;4943010;28;89950;-49
2022/10/29 06:51:25;;;;;;;74.47;53.17;;;19.10;80.70;;;;;;4937791;28;90541;-51
2022/10/29 06:53:52;;;;;;;75.70;52.38;;;19.20;80.80;;;;;;4944997;28;89776;-53
2022/10/29 06:56:18;;;;;;;77.40;52.40;;;19.20;80.80;;;;;;4947264;28;91635;-54
2022/10/29 06:58:44;;;;;;;74.38;52.83;;;19.10;80.70;;;;;;4942547;28;90608;-51
2022/10/29 07:01:10;;;;;;;73.72;52.67;;;19.10;80.70;;;;;;4942296;28;91048;-51
2022/10/29 07:03:35;;;;;;;76.47;52.70;;;19.10;80.70;;;;;;4935979;28;92261;-53
2022/10/29 07:06:01;;;;;;;76.03;53.17;;;19.10;80.70;;;;;;4947480;28;93790;-51
2022/10/29 07:08:27;;;;;;;74.53;52.17;;;19.10;80.70;;;;;;4944022;28;89457;-52
2022/10/29 07:10:54;;;;;;;73.28;52.40;;;19.10;80.70;;;;;;4949923;28;89981;-53
2022/10/29 07:13:19;;;;;;;76.05;52.78;;;19.10;80.70;;;;;;4947370;28;91463;-52
2022/10/29 07:15:45;;;;;;;73.88;52.42;;;19.10;80.70;;;;;;4951012;28;91915;-52
2022/10/29 07:18:11;;;;;;;75.60;52.88;;;19.20;80.70;;;;;;4940303;28;91541;-50
2022/10/29 07:20:42;;;;;;;78.53;52.58;;;19.10;80.70;;;;;;4947063;28;90225;-49
2022/10/29 07:23:08;;;;;;;;;;;19.20;80.80;;;;;;4939001;28;89584;-52
2022/10/29 07:25:36;;;;;;;74.63;52.15;;;19.20;80.90;;;;;;4950423;28;90921;-49
2022/10/29 07:28:13;;;;;;;74.60;52.60;;;19.20;80.90;;;;;;4940387;28;96349;-51
2022/10/29 07:30:39;;;;;;;75.28;52.40;;;19.20;80.90;;;;;;4943678;28;93692;-51
2022/10/29 07:33:05;;;;;;;74.43;52.63;;;19.20;80.80;;;;;;4930988;28;90234;-53
2022/10/29 07:35:33;;;;;;;75.70;52.70;;;19.20;80.90;;;;;;4945162;28;90818;-50
2022/10/29 07:37:59;;;;;;;77.25;52.58;;;19.20;80.90;;;;;;4941985;28;90194;-51
2022/10/29 07:40:25;;;;;;;76.45;52.40;;;19.20;80.80;;;;;;4951594;28;91725;-53
2022/10/29 07:42:51;;;;;;;75.28;52.75;;;19.20;80.70;;;;;;4944610;28;90389;-50
2022/10/29 07:45:17;;;;;;;76.95;52.38;;;19.30;80.90;;;;;;4949071;28;90660;-53
2022/10/29 07:47:43;;;;;;;75.43;52.42;;;19.20;80.70;;;;;;4944879;28;90089;-48
2022/10/29 07:50:09;;;;;;;79.13;52.75;;;19.30;80.80;;;;;;4945061;28;90169;-53
2022/10/29 07:52:35;;;;;;;74.80;52.53;;;19.30;80.70;;;;;;4956589;28;89592;-53
2022/10/29 07:55:01;;;;;;;75.65;52.90;;;19.30;80.70;;;;;;4950215;28;90211;-51
2022/10/29 07:57:27;;;;;;;75.05;53.13;;;19.30;80.70;;;;;;4942519;28;90856;-48
2022/10/29 07:59:53;;;;;;;76.70;53.13;;;19.30;80.70;;;;;;4944957;28;93068;-49
2022/10/29 08:02:19;;;;;;;74.43;53.00;;;19.30;80.70;;;;;;4949383;28;89613;-53
2022/10/29 08:04:44;;;;;;;77.63;52.78;;;19.30;80.70;;;;;;4943788;28;91380;-49
2022/10/29 08:07:10;;;;;;;76.32;52.30;;;19.40;80.80;;;;;;4951291;28;90197;-54
2022/10/29 08:09:36;;;;;;;76.68;52.80;;;19.30;80.60;;;;;;4952938;28;90119;-50
2022/10/29 08:12:03;;;;;;;74.63;52.63;;;19.30;80.60;;;;;;4950213;28;89922;-51
2022/10/29 08:14:29;;;;;;;73.97;52.28;;;19.30;80.50;;;;;;4935740;28;94693;-50
2022/10/29 08:16:55;;;;;;;74.78;53.28;;;19.30;80.50;;;;;;4952341;28;92381;-48
2022/10/29 08:19:21;;;;;;;76.30;53.00;;;19.40;80.60;;;;;;4945231;28;92351;-53
2022/10/29 08:21:47;;;;;;;77.18;52.80;;;19.40;80.60;;;;;;4948507;28;89355;-53
2022/10/29 08:24:12;;;;;;;74.53;52.97;;;19.40;80.60;;;;;;4939060;28;91838;-52
2022/10/29 08:26:38;;;;;;;75.15;52.38;;;19.40;80.60;;;;;;4954590;28;90958;-53
2022/10/29 08:29:04;;;;;;;75.18;53.30;;;19.40;80.70;;;;;;4947958;28;94262;-53
2022/10/29 08:31:29;;;;;;;76.05;52.92;;;19.40;80.60;;;;;;4945799;28;95150;-52
2022/10/29 08:33:55;;;;;;;76.03;52.83;;;19.40;80.70;;;;;;4940104;28;90374;-53
2022/10/29 08:36:21;;;;;;;74.40;52.90;;;19.40;80.70;;;;;;4945411;28;91259;-51
2022/10/29 08:38:46;;;;;;;74.97;52.67;;;19.40;80.70;;;;;;4943534;28;91345;-49
2022/10/29 08:41:27;;;;;;;74.95;52.83;;;19.40;80.60;;;;;;4944348;28;97057;-52
2022/10/29 08:44:05;;;;;;;75.70;52.33;;;19.40;80.60;;;;;;4946192;28;89619;-51
2022/10/29 08:46:45;;;;;;;76.03;52.70;;;19.40;80.60;;;;;;4948091;28;89892;-53
2022/10/29 08:49:17;;;;;;;75.32;53.20;;;19.40;80.70;;;;;;4947026;28;90560;-53
2022/10/29 08:51:50;;;;;;;74.90;52.72;;;19.40;80.60;;;;;;4942944;28;90264;-53
2022/10/29 08:54:16;;;;;;;74.80;53.10;;;19.40;80.80;;;;;;4940843;28;92157;-49
2022/10/29 08:56:50;;;;;;;75.05;52.75;;;19.40;81.00;;;;;;4945071;28;91041;-50
2022/10/29 08:59:21;;;;;;;74.53;53.13;;;19.40;81.10;;;;;;4946759;28;90790;-53
2022/10/29 09:01:48;;;;;;;74.53;53.38;;;19.50;81.10;;;;;;4944178;28;89982;-50
2022/10/29 09:04:28;;;;;;;77.05;52.67;;;19.50;81.10;;;;;;4957685;28;90682;-49
2022/10/29 09:07:02;;;;;;;74.05;52.72;;;19.50;80.90;;;;;;4942098;28;90174;-53
2022/10/29 09:09:42;;;;;;;76.57;52.88;;;19.50;81.00;;;;;;4941195;28;92970;-51
2022/10/29 09:12:22;;;;;;;74.28;52.80;;;19.50;80.80;;;;;;4943386;28;89236;-52
2022/10/29 09:14:59;;;;;;;75.47;52.97;;;19.60;80.80;;;;;;4941329;28;91244;-49
2022/10/29 09:17:45;;;;;;;81.20;53.17;;;19.60;80.80;;;;;;4943299;28;91855;-53
2022/10/29 09:20:35;;;;;;;74.80;52.75;;;19.60;80.80;;;;;;4941312;28;92037;-51
2022/10/29 09:23:38;;;;;;;75.07;52.75;;;19.60;80.80;;;;;;4946263;28;89856;-53
2022/10/29 09:26:10;;;;;;;77.07;53.45;;;19.60;80.70;;;;;;4945814;28;91334;-53
2022/10/29 09:28:46;;;;;;;76.40;52.88;;;19.70;80.70;;;;;;4946549;28;90729;-52
2022/10/29 09:31:20;;;;;;;75.75;53.33;;;19.70;80.70;;;;;;4941351;28;90901;-51
2022/10/29 09:33:49;;;;;;;75.32;53.05;;;19.70;80.60;;;;;;4946710;28;90677;-52
2022/10/29 09:36:17;;;;;;;75.32;53.05;;;19.70;80.50;;;;;;4943402;28;91970;-52
2022/10/29 09:39:03;;;;;;;75.78;53.35;;;19.70;80.50;;;;;;4942001;28;90392;-53
2022/10/29 09:41:31;;;;;;;74.80;53.40;;;19.70;80.40;;;;;;4940630;28;90330;-53
2022/10/29 09:44:17;;;;;;;78.15;53.17;;;19.70;80.40;;;;;;4951307;28;90176;-54
2022/10/29 09:47:05;;;;;;;75.78;53.35;;;19.80;80.60;;;;;;4941968;28;92706;-53
2022/10/29 09:49:56;;;;;;;74.72;52.75;;;19.80;80.50;;;;;;4939078;28;90036;-50
2022/10/29 09:52:35;;;;;;;75.82;52.95;;;19.80;80.50;;;;;;4938666;28;92270;-48
2022/10/29 09:55:04;;;;;;;77.25;53.47;;;19.90;80.60;;;;;;4950895;28;90177;-50
2022/10/29 09:57:33;;;;;;;76.28;52.92;;;19.90;80.50;;;;;;4950277;28;91015;-51
2022/10/29 10:00:04;;;;;;;78.05;53.30;;;19.90;80.60;;;;;;4941146;28;90163;-54
2022/10/29 10:02:36;;;;;;;78.88;54.03;;;19.90;80.80;;;;;;4942159;28;92760;-52
2022/10/29 10:05:11;;;;;;;77.15;54.45;;;19.90;81.30;;;;;;4946905;28;90944;-53
2022/10/29 10:07:37;;;;;;;81.13;54.40;;;19.90;81.30;;;;;;4946846;28;91055;-52
2022/10/29 10:10:04;;;;;;;80.75;54.50;;;19.90;81.50;;;;;;4946472;28;90559;-49
2022/10/29 10:12:37;;;;;;;83.82;54.58;;;19.90;81.70;;;;;;4946821;28;92301;-51
2022/10/29 10:15:17;;;;;;;81.80;55.05;;;19.90;81.60;;;;;;4945764;28;90572;-52
2022/10/29 10:17:55;;;;;;;86.73;54.53;;;19.90;81.80;;;;;;4947243;28;89978;-53
2022/10/29 10:20:43;;;;;;;81.35;54.28;;;20.00;82.10;;;;;;4948779;28;89957;-50
2022/10/29 10:23:26;;;;;;;82.15;54.55;;;19.90;82.00;;;;;;4943640;28;91264;-50
2022/10/29 10:25:57;;;;;;;80.60;54.15;;;20.00;82.00;;;;;;4947596;28;90107;-52
2022/10/29 10:28:25;;;;;;;103.65;57.90;;;20.00;82.00;;;;;;4947572;28;89924;-53
2022/10/29 10:31:09;;;;;;;129.23;63.15;;;20.00;81.80;;;;;;4942037;28;90758;-53
2022/10/29 10:33:42;;;;;;;126.43;65.32;;;20.00;82.00;;;;;;4948738;28;90323;-52
2022/10/29 10:36:09;;;;;;;117.85;63.17;;;20.10;82.50;;;;;;4940254;28;91896;-52
2022/10/29 10:38:50;;;;;;;122.68;61.90;;;20.10;82.00;;;;;;4944476;28;91184;-52
2022/10/29 10:41:27;;;;;;;132.40;68.00;;;20.10;82.00;;;;;;4952560;28;90525;-52
2022/10/29 10:44:04;;;;;;;121.28;67.03;;;20.10;82.10;;;;;;4945981;28;89861;-49
2022/10/29 10:46:37;;;;;;;125.57;66.65;;;20.10;82.00;;;;;;4936966;28;89952;-52
2022/10/29 10:49:09;;;;;;;123.47;65.13;;;20.10;82.10;;;;;;4938303;28;94921;-53
2022/10/29 10:51:37;;;;;;;130.00;67.35;;;20.10;81.90;;;;;;4940574;28;90403;-48
2022/10/29 10:54:22;;;;;;;126.60;66.18;;;20.20;81.80;;;;;;4941023;28;90332;-47
2022/10/29 10:57:03;;;;;;;124.30;66.78;;;20.20;81.60;;;;;;4941438;28;89349;-53
2022/10/29 10:59:42;;;;;;;115.68;65.05;;;20.20;81.50;;;;;;4940063;28;95006;-50
2022/10/29 11:02:36;;;;;;;110.75;62.10;;;20.20;81.10;;;;;;4937539;28;94430;-50
2022/10/29 11:05:13;;;;;;;105.78;60.17;;;20.30;78.70;;;;;;4947575;28;90880;-49
2022/10/29 11:07:45;;;;;;;96.78;59.58;;;20.30;77.50;;;;;;4940281;28;91989;-50
2022/10/29 11:10:12;;;;;;;102.82;59.22;;;20.30;77.80;;;;;;4950288;28;92207;-49
2022/10/29 11:12:48;;;;;;;94.97;57.88;;;20.30;76.50;;;;;;4951831;28;92955;-51
2022/10/29 11:15:35;;;;;;;95.70;57.85;;;20.30;76.00;;;;;;4950750;28;93171;-53
2022/10/29 11:18:38;;;;;;;93.85;57.63;;;20.30;75.70;;;;;;4949655;28;90212;-52
2022/10/29 11:21:10;;;;;;;95.57;57.38;;;20.30;75.40;;;;;;4938641;28;90770;-50
2022/10/29 11:23:50;;;;;;;87.40;56.97;;;20.30;75.60;;;;;;4949587;28;89940;-49
2022/10/29 11:26:28;;;;;;;90.45;56.28;;;20.30;75.90;;;;;;4944635;28;91229;-51
2022/10/29 11:29:21;;;;;;;88.30;55.90;;;20.30;75.70;;;;;;4951408;28;91446;-50
2022/10/29 11:32:05;;;;;;;116.43;61.70;;;20.30;75.10;;;;;;4939740;28;92014;-52
2022/10/29 11:35:02;;;;;;;100.80;57.38;;;20.30;75.60;;;;;;4943865;28;89937;-57
2022/10/29 11:37:47;;;;;;;97.28;57.15;;;20.40;74.70;;;;;;4952538;28;90956;-52
2022/10/29 11:40:36;;;;;;;97.65;56.97;;;20.40;74.70;;;;;;4939138;28;91024;-52
2022/10/29 11:43:02;;;;;;;87.40;56.22;;;20.40;75.30;;;;;;4946004;28;91478;-53
2022/10/29 11:45:52;;;;;;;94.50;57.47;;;20.30;75.00;;;;;;4946516;28;90425;-51
2022/10/29 11:48:55;;;;;;;89.28;56.47;;;20.40;74.60;;;;;;4939800;28;90080;-50
2022/10/29 11:51:47;;;;;;;97.28;56.30;;;20.30;74.20;;;;;;4925793;28;89763;-51
2022/10/29 11:54:24;;;;;;;92.28;56.63;;;20.30;74.00;;;;;;4953125;28;90360;-49
2022/10/29 11:56:57;;;;;;;89.47;55.83;;;20.40;73.90;;;;;;4941494;28;92736;-54
2022/10/29 11:59:52;;;;;;;87.78;55.78;;;20.40;74.20;;;;;;4946379;28;91369;-51
2022/10/29 12:02:36;;;;;;;87.03;55.35;;;20.40;73.60;;;;;;4943742;28;95567;-51
2022/10/29 12:05:24;;;;;;;86.63;55.33;;;20.40;73.40;;;;;;4945228;28;90489;-52
2022/10/29 12:08:27;;;;;;;86.05;55.08;;;20.40;72.90;;;;;;4944857;28;90384;-51
2022/10/29 12:11:16;;;;;;;90.43;54.88;;;20.50;72.80;;;;;;4944516;28;90003;-51
2022/10/29 12:14:19;;;;;;;86.03;55.05;;;20.50;72.50;;;;;;4951090;28;90532;-48
2022/10/29 12:17:01;;;;;;;83.25;54.55;;;20.50;72.20;;;;;;4943529;28;95602;-53
2022/10/29 12:19:38;;;;;;;86.97;54.75;;;20.50;72.50;;;;;;4950525;28;90007;-50
2022/10/29 12:22:18;;;;;;;84.10;55.95;;;20.50;72.90;;;;;;4939685;28;89843;-53
2022/10/29 12:25:05;;;;;;;83.55;55.05;;;20.50;72.50;;;;;;4945336;28;91316;-50
2022/10/29 12:27:52;;;;;;;85.55;55.08;;;20.60;72.00;;;;;;4940227;28;95172;-52
2022/10/29 12:30:21;;;;;;;82.53;55.05;;;20.60;72.10;;;;;;4950503;28;91092;-53
2022/10/29 12:32:56;;;;;;;85.80;55.08;;;20.60;71.80;;;;;;4950970;28;91171;-52
2022/10/29 12:35:28;;;;;;;82.72;54.17;;;20.60;72.00;;;;;;4952048;28;94474;-52
2022/10/29 12:38:24;;;;;;;81.50;54.95;;;20.60;72.10;;;;;;4944998;28;91147;-50
2022/10/29 12:41:06;;;;;;;82.57;54.97;;;20.60;72.00;;;;;;4949004;28;90655;-53
2022/10/29 12:43:38;;;;;;;85.43;54.63;;;20.50;71.90;;;;;;4949157;28;90827;-54
2022/10/29 12:46:13;;;;;;;82.22;54.45;;;20.50;71.80;;;;;;4946880;28;89031;-50
2022/10/29 12:49:28;;;;;;;85.07;55.00;;;20.60;71.90;;;;;;4941444;28;91149;-51
2022/10/29 12:52:00;;;;;;;83.97;54.80;;;20.60;72.10;;;;;;4922460;28;91258;-54